createdAt,value
2023-03-30T00:00:12.195Z,59.07
2023-03-30T00:01:02.800Z,59.06
2023-03-30T00:01:52.562Z,59.02
2023-03-30T00:02:42.819Z,59.05
2023-03-30T00:03:33.131Z,59.25
2023-03-30T00:04:23.302Z,59.18
2023-03-30T00:05:13.328Z,59.28
2023-03-30T00:06:03.109Z,59.22
2023-03-30T00:06:53.130Z,59.10
2023-03-30T00:07:43.205Z,59.07
2023-03-30T00:08:33.262Z,59.10
2023-03-30T00:09:23.360Z,59.41
2023-03-30T00:10:13.400Z,59.19
2023-03-30T00:11:03.773Z,59.59
2023-03-30T00:11:53.544Z,59.35
2023-03-30T00:12:43.782Z,59.25
2023-03-30T00:13:33.830Z,59.32
2023-03-30T00:14:23.903Z,59.61
2023-03-30T00:15:14.232Z,59.43
2023-03-30T00:16:04.331Z,59.25
2023-03-30T00:16:54.353Z,59.23
2023-03-30T00:17:44.685Z,59.17
2023-03-30T00:18:34.740Z,59.11
2023-03-30T00:19:24.798Z,59.34
2023-03-30T00:20:15.181Z,59.24
2023-03-30T00:21:05.635Z,59.21
2023-03-30T00:21:55.236Z,59.23
2023-03-30T00:22:45.310Z,59.56
2023-03-30T00:23:35.370Z,59.43
2023-03-30T00:24:25.466Z,59.31
2023-03-30T00:25:15.515Z,59.42
2023-03-30T00:26:05.591Z,59.13
2023-03-30T00:26:55.618Z,59.53
2023-03-30T00:27:45.683Z,59.51
2023-03-30T00:28:35.748Z,59.20
2023-03-30T00:29:26.033Z,59.30
2023-03-30T00:30:16.125Z,59.22
2023-03-30T00:31:06.489Z,59.23
2023-03-30T00:31:56.518Z,59.75
2023-03-30T00:32:46.567Z,59.31
2023-03-30T00:33:45.506Z,59.41
2023-03-30T00:34:27.637Z,59.86
2023-03-30T00:35:16.740Z,60.04
2023-03-30T00:36:06.861Z,59.59
2023-03-30T00:36:56.823Z,59.28
2023-03-30T00:37:46.884Z,59.42
2023-03-30T00:38:36.951Z,59.27
2023-03-30T00:39:27.057Z,59.34
2023-03-30T00:40:17.168Z,59.15
2023-03-30T00:41:07.483Z,59.13
2023-03-30T00:41:57.287Z,59.24
2023-03-30T00:42:47.617Z,59.32
2023-03-30T00:43:37.704Z,59.15
2023-03-30T00:44:27.722Z,59.90
2023-03-30T00:45:17.795Z,59.41
2023-03-30T00:46:07.921Z,59.96
2023-03-30T00:46:57.920Z,59.42
2023-03-30T00:47:48.014Z,59.20
2023-03-30T00:48:38.049Z,59.44
2023-03-30T00:49:28.115Z,59.50
2023-03-30T00:50:18.188Z,59.98
2023-03-30T00:51:08.259Z,59.97
2023-03-30T00:51:58.413Z,59.38
2023-03-30T00:52:48.474Z,59.69
2023-03-30T00:53:38.550Z,59.33
2023-03-30T00:54:28.876Z,59.72
2023-03-30T00:55:18.967Z,59.32
2023-03-30T00:56:09.028Z,59.74
2023-03-30T00:56:59.067Z,60.63
2023-03-30T00:57:49.103Z,59.81
2023-03-30T00:58:39.180Z,60.15
2023-03-30T00:59:29.237Z,61.07
2023-03-30T01:00:19.322Z,60.54
2023-03-30T01:01:09.421Z,59.88
2023-03-30T01:01:59.439Z,59.64
2023-03-30T01:02:49.471Z,59.81
2023-03-30T01:03:39.850Z,59.53
2023-03-30T01:04:29.812Z,60.52
2023-03-30T01:05:19.873Z,59.75
2023-03-30T01:06:09.956Z,59.80
2023-03-30T01:07:00.004Z,59.47
2023-03-30T01:07:50.060Z,59.71
2023-03-30T01:08:40.084Z,59.59
2023-03-30T01:09:30.137Z,59.69
2023-03-30T01:10:20.202Z,59.37
2023-03-30T01:11:10.307Z,59.41
2023-03-30T01:12:00.354Z,59.40
2023-03-30T01:12:50.629Z,59.41
2023-03-30T01:13:40.694Z,59.58
2023-03-30T01:14:30.753Z,59.69
2023-03-30T01:15:20.832Z,59.35
2023-03-30T01:16:10.972Z,59.49
2023-03-30T01:17:00.942Z,59.20
2023-03-30T01:17:51.037Z,59.46
2023-03-30T01:18:41.051Z,59.25
2023-03-30T01:19:31.116Z,59.19
2023-03-30T01:20:21.193Z,59.36
2023-03-30T01:21:11.274Z,59.23
2023-03-30T01:22:01.473Z,59.56
2023-03-30T01:22:51.533Z,59.45
2023-03-30T01:23:41.602Z,59.31
2023-03-30T01:24:31.882Z,59.28
2023-03-30T01:25:21.965Z,59.31
2023-03-30T01:26:12.040Z,59.84
2023-03-30T01:27:02.444Z,59.31
2023-03-30T01:27:52.384Z,59.38
2023-03-30T01:28:42.459Z,59.27
2023-03-30T01:29:32.772Z,59.97
2023-03-30T01:30:22.843Z,59.48
2023-03-30T01:31:12.942Z,59.26
2023-03-30T01:32:02.923Z,59.75
2023-03-30T01:32:53.067Z,59.92
2023-03-30T01:33:43.040Z,59.61
2023-03-30T01:34:33.091Z,59.39
2023-03-30T01:35:23.235Z,59.65
2023-03-30T01:36:13.236Z,59.57
2023-03-30T01:37:03.240Z,59.74
2023-03-30T01:37:53.303Z,59.58
2023-03-30T01:38:43.588Z,59.53
2023-03-30T01:39:33.651Z,60.35
2023-03-30T01:40:23.716Z,59.79
2023-03-30T01:41:14.085Z,59.58
2023-03-30T01:42:04.099Z,59.70
2023-03-30T01:42:54.131Z,59.84
2023-03-30T01:43:44.198Z,60.26
2023-03-30T01:44:34.274Z,60.08
2023-03-30T01:45:24.317Z,60.40
2023-03-30T01:46:14.422Z,59.59
2023-03-30T01:47:04.485Z,59.84
2023-03-30T01:47:54.533Z,60.89
2023-03-30T01:48:44.509Z,60.41
2023-03-30T01:49:34.551Z,60.45
2023-03-30T01:50:24.834Z,60.82
2023-03-30T01:51:14.906Z,61.19
2023-03-30T01:52:04.992Z,60.05
2023-03-30T01:52:55.247Z,59.76
2023-03-30T01:53:45.322Z,60.82
2023-03-30T01:54:35.341Z,61.24
2023-03-30T01:55:25.416Z,61.33
2023-03-30T01:56:15.507Z,60.84
2023-03-30T01:57:05.657Z,61.64
2023-03-30T01:57:55.626Z,60.50
2023-03-30T01:58:45.639Z,60.43
2023-03-30T01:59:35.698Z,60.40
2023-03-30T02:00:25.770Z,60.79
2023-03-30T02:01:15.851Z,60.77
2023-03-30T02:02:06.095Z,60.32
2023-03-30T02:02:56.280Z,61.62
2023-03-30T02:03:46.294Z,61.45
2023-03-30T02:04:36.268Z,61.91
2023-03-30T02:05:26.318Z,60.98
2023-03-30T02:06:16.400Z,61.80
2023-03-30T02:07:06.466Z,61.66
2023-03-30T02:07:56.537Z,61.53
2023-03-30T02:08:46.598Z,60.67
2023-03-30T02:09:36.664Z,60.72
2023-03-30T02:10:26.737Z,60.46
2023-03-30T02:11:16.910Z,60.87
2023-03-30T02:12:06.927Z,60.97
2023-03-30T02:12:56.988Z,60.75
2023-03-30T02:13:47.069Z,60.55
2023-03-30T02:14:37.108Z,61.26
2023-03-30T02:15:27.185Z,60.53
2023-03-30T02:16:17.305Z,59.98
2023-03-30T02:17:07.304Z,60.85
2023-03-30T02:17:57.402Z,60.84
2023-03-30T02:18:47.412Z,60.67
2023-03-30T02:19:37.472Z,60.50
2023-03-30T02:20:27.706Z,60.96
2023-03-30T02:21:17.787Z,60.87
2023-03-30T02:22:07.846Z,61.46
2023-03-30T02:22:58.127Z,60.38
2023-03-30T02:23:48.191Z,60.64
2023-03-30T02:24:38.230Z,60.90
2023-03-30T02:25:28.313Z,60.26
2023-03-30T02:26:18.351Z,59.99
2023-03-30T02:27:08.393Z,60.30
2023-03-30T02:27:58.410Z,60.57
2023-03-30T02:28:48.504Z,60.70
2023-03-30T02:29:38.559Z,60.51
2023-03-30T02:30:28.639Z,60.24
2023-03-30T02:31:18.721Z,60.25
2023-03-30T02:32:09.021Z,60.88
2023-03-30T02:32:59.071Z,60.65
2023-03-30T02:33:49.104Z,60.23
2023-03-30T02:34:39.419Z,60.57
2023-03-30T02:35:29.504Z,60.19
2023-03-30T02:36:19.637Z,60.51
2023-03-30T02:37:09.894Z,60.20
2023-03-30T02:37:59.934Z,59.81
2023-03-30T02:38:49.979Z,60.22
2023-03-30T02:39:40.302Z,59.84
2023-03-30T02:40:30.374Z,59.61
2023-03-30T02:41:20.462Z,59.77
2023-03-30T02:42:10.487Z,60.25
2023-03-30T02:43:00.559Z,59.63
2023-03-30T02:43:50.655Z,59.95
2023-03-30T02:44:40.649Z,59.90
2023-03-30T02:45:30.781Z,59.78
2023-03-30T02:46:20.853Z,59.78
2023-03-30T02:47:10.825Z,59.73
2023-03-30T02:48:00.859Z,59.56
2023-03-30T02:48:50.913Z,59.78
2023-03-30T02:49:40.981Z,59.72
2023-03-30T02:50:31.053Z,59.96
2023-03-30T02:51:21.134Z,59.73
2023-03-30T02:52:11.166Z,59.82
2023-03-30T02:53:01.266Z,60.15
2023-03-30T02:53:51.278Z,60.02
2023-03-30T02:54:41.340Z,59.96
2023-03-30T02:55:31.620Z,60.61
2023-03-30T02:56:21.697Z,60.75
2023-03-30T02:57:11.771Z,60.41
2023-03-30T02:58:02.056Z,60.27
2023-03-30T02:58:52.141Z,60.42
2023-03-30T02:59:42.194Z,59.85
2023-03-30T03:00:32.230Z,59.82
2023-03-30T03:01:22.379Z,59.70
2023-03-30T03:02:12.419Z,60.11
2023-03-30T03:03:02.584Z,60.32
2023-03-30T03:03:52.491Z,59.84
2023-03-30T03:04:42.551Z,61.38
2023-03-30T03:05:32.628Z,60.58
2023-03-30T03:06:22.687Z,60.03
2023-03-30T03:07:12.878Z,60.54
2023-03-30T03:08:02.949Z,60.17
2023-03-30T03:08:53.016Z,60.24
2023-03-30T03:09:43.333Z,60.09
2023-03-30T03:10:33.406Z,60.07
2023-03-30T03:11:23.488Z,60.46
2023-03-30T03:12:13.814Z,60.39
2023-03-30T03:13:03.855Z,60.09
2023-03-30T03:13:53.927Z,59.92
2023-03-30T03:14:44.220Z,60.17
2023-03-30T03:15:34.261Z,60.41
2023-03-30T03:16:24.364Z,60.39
2023-03-30T03:17:14.715Z,59.87
2023-03-30T03:18:04.749Z,59.88
2023-03-30T03:18:54.790Z,60.07
2023-03-30T03:19:45.060Z,60.08
2023-03-30T03:20:35.127Z,59.80
2023-03-30T03:21:25.215Z,59.62
2023-03-30T03:22:15.242Z,60.12
2023-03-30T03:23:05.302Z,59.77
2023-03-30T03:23:55.380Z,59.99
2023-03-30T03:24:45.425Z,59.73
2023-03-30T03:25:35.462Z,59.98
2023-03-30T03:26:25.501Z,60.35
2023-03-30T03:27:15.533Z,60.10
2023-03-30T03:28:05.606Z,59.83
2023-03-30T03:28:55.898Z,60.31
2023-03-30T03:29:45.966Z,60.13
2023-03-30T03:30:36.074Z,60.11
2023-03-30T03:31:26.376Z,60.16
2023-03-30T03:32:16.374Z,59.81
2023-03-30T03:33:06.500Z,59.98
2023-03-30T03:33:56.779Z,60.25
2023-03-30T03:34:46.815Z,60.33
2023-03-30T03:35:36.897Z,60.43
2023-03-30T03:36:27.214Z,59.72
2023-03-30T03:37:17.239Z,60.37
2023-03-30T03:38:07.307Z,60.19
2023-03-30T03:38:57.380Z,60.48
2023-03-30T03:39:47.406Z,60.39
2023-03-30T03:40:37.494Z,60.37
2023-03-30T03:41:27.533Z,59.83
2023-03-30T03:42:17.571Z,60.85
2023-03-30T03:43:07.629Z,60.52
2023-03-30T03:43:57.723Z,60.67
2023-03-30T03:44:47.711Z,60.05
2023-03-30T03:45:38.067Z,60.19
2023-03-30T03:46:28.160Z,59.85
2023-03-30T03:47:18.170Z,60.26
2023-03-30T03:48:08.533Z,60.56
2023-03-30T03:48:58.533Z,59.96
2023-03-30T03:49:48.568Z,59.94
2023-03-30T03:50:38.636Z,60.28
2023-03-30T03:51:28.710Z,59.82
2023-03-30T03:52:18.736Z,59.95
2023-03-30T03:53:08.794Z,59.90
2023-03-30T03:53:58.864Z,60.18
2023-03-30T03:54:48.925Z,59.82
2023-03-30T03:55:38.999Z,59.89
2023-03-30T03:56:29.071Z,61.00
2023-03-30T03:57:19.358Z,60.82
2023-03-30T03:58:09.364Z,61.61
2023-03-30T03:58:59.426Z,61.11
2023-03-30T03:59:49.747Z,60.69
2023-03-30T04:00:39.907Z,60.59
2023-03-30T04:01:29.917Z,60.73
2023-03-30T04:02:22.574Z,60.62
2023-03-30T04:03:10.167Z,60.61
2023-03-30T04:04:00.085Z,61.33
2023-03-30T04:04:50.182Z,60.52
2023-03-30T04:05:40.169Z,60.52
2023-03-30T04:06:30.255Z,60.66
2023-03-30T04:07:20.276Z,61.26
2023-03-30T04:08:10.350Z,61.73
2023-03-30T04:09:00.416Z,61.57
2023-03-30T04:09:50.449Z,61.24
2023-03-30T04:10:40.496Z,60.88
2023-03-30T04:11:30.530Z,61.09
2023-03-30T04:12:20.554Z,60.38
2023-03-30T04:13:10.619Z,60.73
2023-03-30T04:14:00.700Z,60.88
2023-03-30T04:14:50.763Z,60.80
2023-03-30T04:15:40.841Z,61.39
2023-03-30T04:16:30.942Z,61.83
2023-03-30T04:17:21.226Z,62.09
2023-03-30T04:18:11.269Z,60.96
2023-03-30T04:19:01.242Z,60.99
2023-03-30T04:19:51.309Z,60.77
2023-03-30T04:20:41.386Z,60.73
2023-03-30T04:21:31.427Z,60.99
2023-03-30T04:22:21.461Z,61.24
2023-03-30T04:23:11.496Z,60.60
2023-03-30T04:24:01.565Z,60.26
2023-03-30T04:24:51.622Z,60.88
2023-03-30T04:25:41.697Z,60.18
2023-03-30T04:26:32.039Z,60.19
2023-03-30T04:27:22.101Z,60.69
2023-03-30T04:28:12.172Z,60.88
2023-03-30T04:29:02.515Z,60.86
2023-03-30T04:29:52.566Z,61.02
2023-03-30T04:30:42.643Z,60.96
2023-03-30T04:31:33.010Z,61.10
2023-03-30T04:32:23.135Z,61.31
2023-03-30T04:33:13.079Z,60.56
2023-03-30T04:34:03.157Z,60.92
2023-03-30T04:34:53.194Z,60.92
2023-03-30T04:35:43.302Z,60.75
2023-03-30T04:36:33.319Z,60.32
2023-03-30T04:37:23.345Z,61.50
2023-03-30T04:38:13.390Z,61.41
2023-03-30T04:39:03.467Z,61.87
2023-03-30T04:39:53.526Z,61.48
2023-03-30T04:40:43.808Z,61.72
2023-03-30T04:41:33.926Z,61.73
2023-03-30T04:42:23.937Z,61.27
2023-03-30T04:43:14.270Z,60.75
2023-03-30T04:44:04.379Z,60.87
2023-03-30T04:44:54.379Z,61.10
2023-03-30T04:45:44.495Z,60.53
2023-03-30T04:46:34.512Z,61.55
2023-03-30T04:47:24.576Z,60.99
2023-03-30T04:48:14.624Z,61.25
2023-03-30T04:49:04.678Z,60.78
2023-03-30T04:49:54.746Z,60.39
2023-03-30T04:50:44.821Z,60.90
2023-03-30T04:51:34.906Z,61.25
2023-03-30T04:52:25.147Z,60.88
2023-03-30T04:53:15.249Z,62.13
2023-03-30T04:54:05.268Z,61.65
2023-03-30T04:54:55.579Z,60.63
2023-03-30T04:55:45.651Z,61.62
2023-03-30T04:56:35.705Z,62.48
2023-03-30T04:57:25.815Z,62.48
2023-03-30T04:58:15.778Z,62.13
2023-03-30T04:59:05.845Z,62.34
2023-03-30T04:59:55.918Z,60.92
2023-03-30T05:00:46.004Z,61.32
2023-03-30T05:01:36.098Z,60.61
2023-03-30T05:02:26.252Z,60.61
2023-03-30T05:03:16.322Z,61.66
2023-03-30T05:04:06.238Z,62.45
2023-03-30T05:04:56.272Z,62.65
2023-03-30T05:05:46.344Z,62.91
2023-03-30T05:06:36.417Z,62.83
2023-03-30T05:07:26.455Z,61.24
2023-03-30T05:08:16.482Z,60.48
2023-03-30T05:09:06.551Z,60.77
2023-03-30T05:09:56.618Z,62.00
2023-03-30T05:10:46.968Z,62.58
2023-03-30T05:11:37.037Z,62.87
2023-03-30T05:12:27.064Z,62.73
2023-03-30T05:13:17.098Z,62.26
2023-03-30T05:14:07.181Z,62.59
2023-03-30T05:14:57.246Z,62.24
2023-03-30T05:15:47.310Z,61.28
2023-03-30T05:16:37.471Z,60.66
2023-03-30T05:17:27.533Z,61.11
2023-03-30T05:18:17.490Z,61.65
2023-03-30T05:19:07.572Z,62.39
2023-03-30T05:19:57.833Z,62.08
2023-03-30T05:20:47.871Z,62.68
2023-03-30T05:21:37.957Z,61.19
2023-03-30T05:22:28.285Z,60.72
2023-03-30T05:23:18.350Z,61.27
2023-03-30T05:24:08.423Z,61.65
2023-03-30T05:24:58.748Z,61.48
2023-03-30T05:25:48.931Z,62.20
2023-03-30T05:26:38.983Z,62.16
2023-03-30T05:27:28.924Z,61.82
2023-03-30T05:28:18.980Z,61.85
2023-03-30T05:29:09.053Z,61.37
2023-03-30T05:29:59.115Z,61.36
2023-03-30T05:30:49.232Z,60.77
2023-03-30T05:31:39.290Z,61.74
2023-03-30T05:32:29.353Z,62.33
2023-03-30T05:33:19.337Z,62.54
2023-03-30T05:34:09.661Z,61.65
2023-03-30T05:34:59.722Z,61.42
2023-03-30T05:35:49.844Z,62.04
2023-03-30T05:36:39.836Z,62.27
2023-03-30T05:37:29.893Z,62.67
2023-03-30T05:38:19.970Z,62.15
2023-03-30T05:39:09.985Z,62.56
2023-03-30T05:40:00.057Z,62.30
2023-03-30T05:40:50.116Z,62.65
2023-03-30T05:41:40.198Z,62.36
2023-03-30T05:42:30.222Z,62.30
2023-03-30T05:43:20.508Z,61.71
2023-03-30T05:44:10.575Z,61.57
2023-03-30T05:45:00.649Z,62.61
2023-03-30T05:45:50.712Z,62.55
2023-03-30T05:46:40.905Z,61.33
2023-03-30T05:47:30.896Z,62.70
2023-03-30T05:48:20.881Z,63.03
2023-03-30T05:49:10.953Z,62.79
2023-03-30T05:50:01.021Z,62.80
2023-03-30T05:50:51.115Z,62.43
2023-03-30T05:51:41.177Z,62.76
2023-03-30T05:52:31.388Z,62.54
2023-03-30T05:53:21.438Z,62.73
2023-03-30T05:54:11.511Z,62.79
2023-03-30T05:55:01.834Z,62.77
2023-03-30T05:55:51.910Z,62.68
2023-03-30T05:56:42.002Z,63.05
2023-03-30T05:57:32.353Z,63.19
2023-03-30T05:58:22.310Z,63.16
2023-03-30T05:59:12.393Z,62.69
2023-03-30T06:00:02.444Z,62.93
2023-03-30T06:00:52.514Z,63.20
2023-03-30T06:01:42.584Z,62.45
2023-03-30T06:02:32.700Z,63.13
2023-03-30T06:03:22.750Z,63.42
2023-03-30T06:04:12.928Z,63.19
2023-03-30T06:05:02.844Z,63.29
2023-03-30T06:05:52.831Z,63.27
2023-03-30T06:06:43.161Z,62.77
2023-03-30T06:07:33.164Z,63.19
2023-03-30T06:08:23.201Z,63.27
2023-03-30T06:09:13.274Z,62.93
2023-03-30T06:10:03.316Z,63.19
2023-03-30T06:10:53.373Z,62.93
2023-03-30T06:11:43.461Z,63.31
2023-03-30T06:12:33.496Z,63.16
2023-03-30T06:13:23.519Z,63.38
2023-03-30T06:14:13.588Z,63.16
2023-03-30T06:15:03.654Z,63.07
2023-03-30T06:15:54.052Z,63.24
2023-03-30T06:16:44.062Z,62.99
2023-03-30T06:17:34.114Z,63.30
2023-03-30T06:18:24.164Z,63.19
2023-03-30T06:19:14.253Z,63.43
2023-03-30T06:20:04.248Z,63.48
2023-03-30T06:20:54.323Z,62.92
2023-03-30T06:21:44.367Z,63.22
2023-03-30T06:22:34.460Z,63.45
2023-03-30T06:23:24.461Z,62.32
2023-03-30T06:24:14.561Z,62.61
2023-03-30T06:25:04.593Z,62.59
2023-03-30T06:25:54.681Z,62.57
2023-03-30T06:26:44.688Z,61.73
2023-03-30T06:27:34.719Z,61.53
2023-03-30T06:28:24.794Z,62.89
2023-03-30T06:29:14.890Z,63.40
2023-03-30T06:30:04.934Z,63.53
2023-03-30T06:30:54.983Z,63.21
2023-03-30T06:31:45.360Z,62.49
2023-03-30T06:32:35.388Z,63.36
2023-03-30T06:33:25.594Z,63.64
2023-03-30T06:34:15.547Z,63.17
2023-03-30T06:35:05.538Z,63.69
2023-03-30T06:35:55.632Z,63.91
2023-03-30T06:36:46.167Z,63.80
2023-03-30T06:37:35.728Z,63.69
2023-03-30T06:38:25.991Z,63.39
2023-03-30T06:39:16.046Z,63.98
2023-03-30T06:40:06.085Z,62.92
2023-03-30T06:40:56.258Z,63.90
2023-03-30T06:41:46.203Z,63.68
2023-03-30T06:42:36.242Z,63.23
2023-03-30T06:43:26.292Z,63.75
2023-03-30T06:44:16.344Z,62.25
2023-03-30T06:45:06.415Z,63.05
2023-03-30T06:45:56.564Z,63.88
2023-03-30T06:46:46.553Z,62.23
2023-03-30T06:47:36.624Z,63.83
2023-03-30T06:48:26.784Z,64.31
2023-03-30T06:49:16.695Z,64.18
2023-03-30T06:50:06.757Z,64.13
2023-03-30T06:50:56.824Z,61.87
2023-03-30T06:51:46.904Z,62.91
2023-03-30T06:52:37.010Z,63.02
2023-03-30T06:53:26.975Z,62.76
2023-03-30T06:54:17.338Z,63.44
2023-03-30T06:55:07.361Z,63.32
2023-03-30T06:55:57.386Z,63.78
2023-03-30T06:56:47.496Z,64.21
2023-03-30T06:57:37.517Z,63.08
2023-03-30T06:58:27.566Z,64.37
2023-03-30T06:59:17.634Z,64.18
2023-03-30T07:00:07.677Z,62.78
2023-03-30T07:00:57.781Z,63.09
2023-03-30T07:01:47.897Z,63.01
2023-03-30T07:02:38.003Z,64.02
2023-03-30T07:03:27.919Z,64.34
2023-03-30T07:04:18.286Z,64.26
2023-03-30T07:05:08.042Z,64.33
2023-03-30T07:05:58.126Z,64.11
2023-03-30T07:06:48.167Z,63.57
2023-03-30T07:07:38.207Z,64.47
2023-03-30T07:08:28.272Z,64.33
2023-03-30T07:09:18.341Z,62.80
2023-03-30T07:10:08.613Z,62.58
2023-03-30T07:10:58.671Z,64.12
2023-03-30T07:11:48.714Z,64.32
2023-03-30T07:12:38.750Z,64.45
2023-03-30T07:13:28.816Z,63.86
2023-03-30T07:14:18.892Z,64.10
2023-03-30T07:15:08.945Z,62.71
2023-03-30T07:15:59.006Z,63.70
2023-03-30T07:16:49.095Z,63.79
2023-03-30T07:17:39.073Z,64.33
2023-03-30T07:18:29.098Z,64.44
2023-03-30T07:19:19.187Z,63.55
2023-03-30T07:20:09.239Z,63.83
2023-03-30T07:20:59.309Z,64.23
2023-03-30T07:21:49.393Z,64.28
2023-03-30T07:22:39.428Z,64.20
2023-03-30T07:23:29.493Z,64.44
2023-03-30T07:24:19.564Z,64.39
2023-03-30T07:25:09.601Z,64.25
2023-03-30T07:25:59.838Z,63.43
2023-03-30T07:26:49.845Z,63.65
2023-03-30T07:27:39.888Z,64.45
2023-03-30T07:28:29.913Z,64.12
2023-03-30T07:29:19.972Z,63.12
2023-03-30T07:30:20.771Z,63.39
2023-03-30T07:31:01.115Z,64.54
2023-03-30T07:31:50.116Z,64.40
2023-03-30T07:32:40.275Z,62.76
2023-03-30T07:33:30.274Z,64.10
2023-03-30T07:34:20.252Z,63.61
2023-03-30T07:35:10.333Z,63.63
2023-03-30T07:36:00.375Z,63.07
2023-03-30T07:36:50.715Z,64.11
2023-03-30T07:37:40.743Z,64.51
2023-03-30T07:38:30.774Z,64.63
2023-03-30T07:39:20.834Z,64.44
2023-03-30T07:40:10.968Z,63.96
2023-03-30T07:41:01.093Z,63.60
2023-03-30T07:41:51.044Z,64.46
2023-03-30T07:42:41.050Z,64.57
2023-03-30T07:43:31.101Z,64.21
2023-03-30T07:44:21.174Z,64.60
2023-03-30T07:45:12.521Z,63.42
2023-03-30T07:46:01.339Z,64.07
2023-03-30T07:46:51.436Z,63.94
2023-03-30T07:47:41.456Z,63.84
2023-03-30T07:48:31.528Z,64.49
2023-03-30T07:49:21.560Z,64.25
2023-03-30T07:50:11.884Z,63.41
2023-03-30T07:51:02.513Z,64.53
2023-03-30T07:51:52.033Z,62.98
2023-03-30T07:52:42.078Z,64.63
2023-03-30T07:53:32.154Z,64.16
2023-03-30T07:54:22.201Z,63.57
2023-03-30T07:55:12.264Z,64.33
2023-03-30T07:56:02.329Z,63.09
2023-03-30T07:56:52.495Z,63.54
2023-03-30T07:57:42.496Z,63.91
2023-03-30T07:58:32.562Z,63.86
2023-03-30T07:59:22.815Z,62.47
2023-03-30T08:00:12.891Z,63.23
2023-03-30T08:01:03.189Z,62.93
2023-03-30T08:01:53.014Z,63.27
2023-03-30T08:02:43.078Z,64.25
2023-03-30T08:03:33.178Z,63.75
2023-03-30T08:04:24.889Z,64.14
2023-03-30T08:05:13.308Z,64.27
2023-03-30T08:06:03.239Z,64.65
2023-03-30T08:06:53.323Z,64.63
2023-03-30T08:07:43.342Z,65.11
2023-03-30T08:08:33.463Z,64.71
2023-03-30T08:09:23.520Z,64.85
2023-03-30T08:10:13.605Z,63.98
2023-03-30T08:11:04.196Z,64.48
2023-03-30T08:11:54.016Z,64.12
2023-03-30T08:12:44.044Z,65.12
2023-03-30T08:13:34.097Z,65.24
2023-03-30T08:14:24.116Z,64.67
2023-03-30T08:15:14.145Z,64.99
2023-03-30T08:16:04.200Z,64.84
2023-03-30T08:16:54.283Z,65.41
2023-03-30T08:17:44.434Z,64.95
2023-03-30T08:18:34.395Z,64.65
2023-03-30T08:19:24.429Z,64.78
2023-03-30T08:20:14.506Z,65.13
2023-03-30T08:21:04.911Z,64.91
2023-03-30T08:21:54.614Z,64.59
2023-03-30T08:22:44.630Z,64.41
2023-03-30T08:23:34.710Z,65.26
2023-03-30T08:24:24.776Z,64.66
2023-03-30T08:25:14.861Z,64.81
2023-03-30T08:26:04.885Z,63.89
2023-03-30T08:26:55.105Z,64.64
2023-03-30T08:27:44.953Z,64.01
2023-03-30T08:28:35.023Z,63.91
2023-03-30T08:29:25.120Z,64.35
2023-03-30T08:30:15.166Z,65.25
2023-03-30T08:31:05.525Z,64.72
2023-03-30T08:31:55.409Z,64.17
2023-03-30T08:32:45.454Z,64.45
2023-03-30T08:33:35.470Z,64.77
2023-03-30T08:34:25.492Z,65.27
2023-03-30T08:35:15.577Z,64.34
2023-03-30T08:36:05.632Z,63.84
2023-03-30T08:36:55.704Z,64.05
2023-03-30T08:37:45.760Z,64.81
2023-03-30T08:38:35.853Z,64.11
2023-03-30T08:39:25.867Z,63.90
2023-03-30T08:40:17.898Z,63.88
2023-03-30T08:41:06.212Z,64.36
2023-03-30T08:41:56.008Z,64.28
2023-03-30T08:42:46.028Z,64.33
2023-03-30T08:43:36.106Z,64.82
2023-03-30T08:44:26.386Z,64.23
2023-03-30T08:45:16.487Z,63.95
2023-03-30T08:46:06.578Z,63.62
2023-03-30T08:46:56.887Z,63.23
2023-03-30T08:47:46.932Z,63.33
2023-03-30T08:48:36.946Z,64.26
2023-03-30T08:49:27.267Z,64.19
2023-03-30T08:50:17.336Z,63.61
2023-03-30T08:51:07.373Z,63.81
2023-03-30T08:51:57.730Z,62.80
2023-03-30T08:52:47.765Z,63.81
2023-03-30T08:53:37.822Z,63.23
2023-03-30T08:54:28.173Z,64.35
2023-03-30T08:55:18.235Z,63.46
2023-03-30T08:56:08.253Z,63.88
2023-03-30T08:56:58.379Z,63.39
2023-03-30T08:57:48.374Z,62.58
2023-03-30T08:58:38.448Z,63.52
2023-03-30T08:59:28.513Z,63.45
2023-03-30T09:00:18.620Z,63.86
2023-03-30T09:01:08.712Z,62.40
2023-03-30T09:01:58.753Z,63.09
2023-03-30T09:02:48.780Z,63.86
2023-03-30T09:03:39.020Z,64.31
2023-03-30T09:04:29.066Z,62.43
2023-03-30T09:05:19.182Z,62.30
2023-03-30T09:06:09.146Z,62.16
2023-03-30T09:06:59.231Z,63.04
2023-03-30T09:07:49.249Z,62.06
2023-03-30T09:08:39.327Z,62.79
2023-03-30T09:09:29.349Z,62.50
2023-03-30T09:10:19.415Z,62.84
2023-03-30T09:11:09.488Z,62.34
2023-03-30T09:11:59.572Z,63.55
2023-03-30T09:12:49.607Z,63.37
2023-03-30T09:13:39.672Z,62.92
2023-03-30T09:14:29.692Z,62.99
2023-03-30T09:15:19.763Z,63.76
2023-03-30T09:16:09.888Z,63.19
2023-03-30T09:16:59.987Z,62.76
2023-03-30T09:17:49.981Z,63.08
2023-03-30T09:18:40.006Z,63.37
2023-03-30T09:19:30.284Z,63.41
2023-03-30T09:20:20.400Z,63.02
2023-03-30T09:21:10.421Z,62.90
2023-03-30T09:22:00.509Z,62.77
2023-03-30T09:22:50.518Z,63.04
2023-03-30T09:23:40.596Z,63.13
2023-03-30T09:24:30.638Z,62.98
2023-03-30T09:25:20.657Z,63.28
2023-03-30T09:26:10.717Z,63.42
2023-03-30T09:27:00.811Z,63.99
2023-03-30T09:27:50.835Z,63.05
2023-03-30T09:28:40.905Z,63.73
2023-03-30T09:29:30.981Z,63.22
2023-03-30T09:30:21.052Z,63.69
2023-03-30T09:31:11.127Z,62.61
2023-03-30T09:32:01.236Z,63.22
2023-03-30T09:32:51.195Z,62.64
2023-03-30T09:33:41.232Z,62.70
2023-03-30T09:34:31.306Z,62.52
2023-03-30T09:35:21.632Z,63.27
2023-03-30T09:36:11.745Z,64.62
2023-03-30T09:37:01.724Z,63.48
2023-03-30T09:37:51.744Z,63.07
2023-03-30T09:38:41.848Z,64.05
2023-03-30T09:39:33.650Z,63.23
2023-03-30T09:40:21.913Z,63.60
2023-03-30T09:41:11.996Z,62.98
2023-03-30T09:42:02.080Z,63.75
2023-03-30T09:42:52.093Z,63.23
2023-03-30T09:43:42.176Z,62.59
2023-03-30T09:44:32.455Z,62.57
2023-03-30T09:45:22.543Z,63.01
2023-03-30T09:46:12.622Z,62.14
2023-03-30T09:47:02.683Z,62.89
2023-03-30T09:47:52.777Z,63.01
2023-03-30T09:48:42.786Z,62.97
2023-03-30T09:49:32.805Z,62.26
2023-03-30T09:50:22.891Z,62.39
2023-03-30T09:51:12.938Z,63.44
2023-03-30T09:52:03.047Z,63.01
2023-03-30T09:52:53.057Z,62.51
2023-03-30T09:53:43.132Z,63.22
2023-03-30T09:54:33.197Z,63.15
2023-03-30T09:55:23.284Z,62.41
2023-03-30T09:56:13.298Z,62.81
2023-03-30T09:57:03.420Z,62.37
2023-03-30T09:57:53.418Z,62.34
2023-03-30T09:58:43.496Z,62.78
2023-03-30T09:59:33.555Z,62.66
2023-03-30T10:00:23.889Z,63.09
2023-03-30T10:01:13.968Z,62.93
2023-03-30T10:02:04.033Z,62.89
2023-03-30T10:02:54.166Z,63.07
2023-03-30T10:03:44.275Z,62.31
2023-03-30T10:04:34.228Z,62.85
2023-03-30T10:05:24.232Z,62.87
2023-03-30T10:06:14.264Z,62.87
2023-03-30T10:07:18.022Z,62.70
2023-03-30T10:07:55.405Z,62.74
2023-03-30T10:08:44.501Z,63.22
2023-03-30T10:09:34.514Z,63.28
2023-03-30T10:10:24.572Z,63.11
2023-03-30T10:11:14.633Z,63.06
2023-03-30T10:12:04.719Z,62.81
2023-03-30T10:12:54.769Z,63.11
2023-03-30T10:13:44.943Z,62.77
2023-03-30T10:14:35.009Z,62.86
2023-03-30T10:15:25.088Z,63.56
2023-03-30T10:16:15.136Z,63.79
2023-03-30T10:17:05.171Z,63.28
2023-03-30T10:17:55.223Z,63.73
2023-03-30T10:18:45.301Z,62.92
2023-03-30T10:19:37.982Z,63.08
2023-03-30T10:20:25.416Z,63.31
2023-03-30T10:21:15.488Z,62.36
2023-03-30T10:22:05.569Z,62.33
2023-03-30T10:22:55.603Z,62.04
2023-03-30T10:23:45.665Z,62.16
2023-03-30T10:24:35.718Z,62.40
2023-03-30T10:25:25.801Z,62.25
2023-03-30T10:26:15.861Z,63.01
2023-03-30T10:27:05.951Z,62.32
2023-03-30T10:27:56.189Z,63.06
2023-03-30T10:28:46.278Z,63.14
2023-03-30T10:29:36.311Z,62.52
2023-03-30T10:30:26.631Z,62.57
2023-03-30T10:31:16.736Z,61.96
2023-03-30T10:32:06.779Z,63.75
2023-03-30T10:32:56.852Z,62.56
2023-03-30T10:33:46.841Z,63.59
2023-03-30T10:34:36.936Z,63.04
2023-03-30T10:35:26.961Z,62.87
2023-03-30T10:36:17.037Z,62.89
2023-03-30T10:37:07.060Z,62.56
2023-03-30T10:37:57.079Z,63.35
2023-03-30T10:38:47.160Z,62.82
2023-03-30T10:39:37.192Z,64.44
2023-03-30T10:40:27.334Z,63.72
2023-03-30T10:41:17.300Z,64.99
2023-03-30T10:42:07.406Z,64.02
2023-03-30T10:42:57.512Z,63.41
2023-03-30T10:43:47.478Z,63.97
2023-03-30T10:44:37.545Z,62.94